Rogers, New Mexico
Current Conditions -  °F | °C
As of 10:58 AM on Thursday 23 Oct 2014 (Local Time) from KCVS Reporting Station
Clear Clear  
Wind Chill: 71°   Ceiling: Unl
Heat Index: 71°   Visibility: 10mi
Dew Point: 52°   Wind: 14mph
Humidity: 52%   Direction: 300°WNW
Pressure: 30.19"   Gusts: NA
Location:  33.98°N, 103.23°W
Report Text: KCVS 231658Z AUTO 30012KT 10SM CLR 22/11 A3019 RMK AO2 SLP180 T02170113 $
Loading
Personal Weather Stations






























Interactive Weather Map
Tropical Storm Tracking
New forecast layout! Learn more

10-Day Weather Forecast

Advertisements
Track Severe Weather on mobile